Main page
METAR-TAF:

METAR-TAF

Airports :

Ferrara, Italy

latitude: 44-50N, longitude: 011-37E, elevation: 10 m

Current weather observation

The report was made 6 hours and 4 minutes ago, at 17:55 UTC
Wind 2 kt from the Northeast
Temperature 19°C
Humidity 78%
Pressure 1013 hPa
Visibility: 6000 m
Scattered clouds at a height of 1800 ft, Cumulonimbus.
Scattered clouds at a height of 2000 ft, Towering cumulus.
thunderstorm, light rain

METAR: LIPF 221755Z 04002KT 6000 -TSRA SCT018CB SCT020TCU 19/15 Q1013 RMK BKN VIS MIN 6000

Time: 01:59 (23:59 UTC)


TAF: missing

Weather observations and forecasts of more than 4000 airports (METAR and TAF reports).

The available stations are represented by yellow and red dots on the map.

Hover mouse over dot to see the name of the station.

Then click to see weather observations and forecasts.

To change the map : click on the green buttons with a black cross to zoom in, on the green button with a dash to zoom out, or on the green arrows for adjacent maps.


METAR-TAF: